sensor_id;sensor_type;location;lat;lon;timestamp;temperature;humidity
13488;DHT22;6816;48.506;9.050;2024-02-04T00:03:00;10.60;99.90
13488;DHT22;6816;48.506;9.050;2024-02-04T00:06:00;10.60;99.90
13488;DHT22;6816;48.506;9.050;2024-02-04T00:09:01;10.60;99.90
13488;DHT22;6816;48.506;9.050;2024-02-04T00:12:04;10.60;99.90
13488;DHT22;6816;48.506;9.050;2024-02-04T00:15:06;10.60;99.90
13488;DHT22;6816;48.506;9.050;2024-02-04T00:18:07;10.60;99.90
13488;DHT22;6816;48.506;9.050;2024-02-04T00:21:08;10.70;99.90
13488;DHT22;6816;48.506;9.050;2024-02-04T00:24:08;10.60;99.90
13488;DHT22;6816;48.506;9.050;2024-02-04T00:27:09;10.50;99.90
13488;DHT22;6816;48.506;9.050;2024-02-04T00:30:10;10.60;99.90
13488;DHT22;6816;48.506;9.050;2024-02-04T00:33:10;10.60;99.90
13488;DHT22;6816;48.506;9.050;2024-02-04T00:36:11;10.60;99.90
13488;DHT22;6816;48.506;9.050;2024-02-04T00:39:12;10.60;99.90
13488;DHT22;6816;48.506;9.050;2024-02-04T00:42:12;10.60;99.90
13488;DHT22;6816;48.506;9.050;2024-02-04T00:45:13;10.60;99.90
13488;DHT22;6816;48.506;9.050;2024-02-04T00:48:13;10.70;99.90
13488;DHT22;6816;48.506;9.050;2024-02-04T00:51:14;10.60;99.90
13488;DHT22;6816;48.506;9.050;2024-02-04T00:54:17;10.60;99.90
13488;DHT22;6816;48.506;9.050;2024-02-04T00:57:18;10.60;99.90
13488;DHT22;6816;48.506;9.050;2024-02-04T01:00:18;10.60;99.90
13488;DHT22;6816;48.506;9.050;2024-02-04T01:03:19;10.60;99.90
13488;DHT22;6816;48.506;9.050;2024-02-04T01:06:19;10.50;99.90
13488;DHT22;6816;48.506;9.050;2024-02-04T01:09:20;10.50;99.90
13488;DHT22;6816;48.506;9.050;2024-02-04T01:12:21;10.60;99.90
13488;DHT22;6816;48.506;9.050;2024-02-04T01:15:21;10.50;99.90
13488;DHT22;6816;48.506;9.050;2024-02-04T01:18:22;10.50;99.90
13488;DHT22;6816;48.506;9.050;2024-02-04T01:21:23;10.50;99.90
13488;DHT22;6816;48.506;9.050;2024-02-04T01:24:26;10.50;99.90
13488;DHT22;6816;48.506;9.050;2024-02-04T01:27:26;10.50;99.90
13488;DHT22;6816;48.506;9.050;2024-02-04T01:30:27;10.50;99.90
13488;DHT22;6816;48.506;9.050;2024-02-04T01:33:30;10.50;99.90
13488;DHT22;6816;48.506;9.050;2024-02-04T01:36:31;10.50;99.90
13488;DHT22;6816;48.506;9.050;2024-02-04T01:39:32;10.50;99.90
13488;DHT22;6816;48.506;9.050;2024-02-04T01:42:33;10.40;99.90
13488;DHT22;6816;48.506;9.050;2024-02-04T01:45:33;10.40;99.90
13488;DHT22;6816;48.506;9.050;2024-02-04T01:48:34;10.40;99.90
13488;DHT22;6816;48.506;9.050;2024-02-04T01:51:35;10.30;99.90
13488;DHT22;6816;48.506;9.050;2024-02-04T01:54:37;10.30;99.90
13488;DHT22;6816;48.506;9.050;2024-02-04T01:57:40;10.30;99.90
13488;DHT22;6816;48.506;9.050;2024-02-04T02:00:41;10.20;99.90
13488;DHT22;6816;48.506;9.050;2024-02-04T02:03:42;10.20;99.90
13488;DHT22;6816;48.506;9.050;2024-02-04T02:06:43;10.20;99.90
13488;DHT22;6816;48.506;9.050;2024-02-04T02:09:45;10.10;99.90
13488;DHT22;6816;48.506;9.050;2024-02-04T02:13:03;10.10;99.90
13488;DHT22;6816;48.506;9.050;2024-02-04T02:16:13;10.10;99.90
13488;DHT22;6816;48.506;9.050;2024-02-04T02:22:47;10.10;99.90
13488;DHT22;6816;48.506;9.050;2024-02-04T02:25:50;10.00;99.90
13488;DHT22;6816;48.506;9.050;2024-02-04T02:28:52;10.00;99.90
13488;DHT22;6816;48.506;9.050;2024-02-04T02:31:52;10.00;99.90
13488;DHT22;6816;48.506;9.050;2024-02-04T02:34:53;10.00;99.90
13488;DHT22;6816;48.506;9.050;2024-02-04T02:37:59;9.90;99.90
13488;DHT22;6816;48.506;9.050;2024-02-04T02:41:07;9.90;99.90
13488;DHT22;6816;48.506;9.050;2024-02-04T02:44:09;10.00;99.90
13488;DHT22;6816;48.506;9.050;2024-02-04T02:47:10;9.90;99.90
13488;DHT22;6816;48.506;9.050;2024-02-04T02:50:11;9.90;99.90
13488;DHT22;6816;48.506;9.050;2024-02-04T02:53:12;9.90;99.90
13488;DHT22;6816;48.506;9.050;2024-02-04T02:56:13;9.90;99.90
13488;DHT22;6816;48.506;9.050;2024-02-04T02:59:13;9.90;99.90
13488;DHT22;6816;48.506;9.050;2024-02-04T03:02:14;9.90;99.90
13488;DHT22;6816;48.506;9.050;2024-02-04T03:05:15;9.90;99.90
13488;DHT22;6816;48.506;9.050;2024-02-04T03:08:16;9.90;99.90
13488;DHT22;6816;48.506;9.050;2024-02-04T03:11:17;9.90;99.90
13488;DHT22;6816;48.506;9.050;2024-02-04T03:14:18;9.90;99.90
13488;DHT22;6816;48.506;9.050;2024-02-04T03:17:19;9.90;99.90
13488;DHT22;6816;48.506;9.050;2024-02-04T03:20:21;9.90;99.90
13488;DHT22;6816;48.506;9.050;2024-02-04T03:23:21;10.00;99.90
13488;DHT22;6816;48.506;9.050;2024-02-04T03:26:22;10.00;99.90
13488;DHT22;6816;48.506;9.050;2024-02-04T03:29:22;10.00;99.90
13488;DHT22;6816;48.506;9.050;2024-02-04T03:32:23;10.00;99.90
13488;DHT22;6816;48.506;9.050;2024-02-04T03:35:24;10.00;99.90
13488;DHT22;6816;48.506;9.050;2024-02-04T03:38:24;10.00;99.90
13488;DHT22;6816;48.506;9.050;2024-02-04T03:41:25;10.00;99.90
13488;DHT22;6816;48.506;9.050;2024-02-04T03:44:25;10.10;99.90
13488;DHT22;6816;48.506;9.050;2024-02-04T03:47:26;10.10;99.90
13488;DHT22;6816;48.506;9.050;2024-02-04T03:50:26;10.10;99.90
13488;DHT22;6816;48.506;9.050;2024-02-04T03:53:27;10.10;99.90
13488;DHT22;6816;48.506;9.050;2024-02-04T03:56:28;10.10;99.90
13488;DHT22;6816;48.506;9.050;2024-02-04T03:59:28;10.30;99.90
13488;DHT22;6816;48.506;9.050;2024-02-04T04:02:29;10.10;99.90
13488;DHT22;6816;48.506;9.050;2024-02-04T04:05:29;10.20;99.90
13488;DHT22;6816;48.506;9.050;2024-02-04T04:08:30;10.10;99.90
13488;DHT22;6816;48.506;9.050;2024-02-04T04:11:31;10.20;99.90
13488;DHT22;6816;48.506;9.050;2024-02-04T04:14:32;10.10;99.90
13488;DHT22;6816;48.506;9.050;2024-02-04T04:17:33;10.10;99.90
13488;DHT22;6816;48.506;9.050;2024-02-04T04:20:33;10.10;99.90
13488;DHT22;6816;48.506;9.050;2024-02-04T04:23:34;10.10;99.90
13488;DHT22;6816;48.506;9.050;2024-02-04T04:26:34;10.10;99.90
13488;DHT22;6816;48.506;9.050;2024-02-04T04:29:35;10.10;99.90
13488;DHT22;6816;48.506;9.050;2024-02-04T04:32:36;10.10;99.90
13488;DHT22;6816;48.506;9.050;2024-02-04T04:35:36;10.10;99.90
13488;DHT22;6816;48.506;9.050;2024-02-04T04:38:37;10.10;99.90
13488;DHT22;6816;48.506;9.050;2024-02-04T04:41:41;10.10;99.90
13488;DHT22;6816;48.506;9.050;2024-02-04T04:44:42;10.10;99.90
13488;DHT22;6816;48.506;9.050;2024-02-04T04:47:43;10.00;99.90
13488;DHT22;6816;48.506;9.050;2024-02-04T04:50:44;10.00;99.90
13488;DHT22;6816;48.506;9.050;2024-02-04T04:53:44;10.00;99.90
13488;DHT22;6816;48.506;9.050;2024-02-04T04:56:45;10.00;99.90
13488;DHT22;6816;48.506;9.050;2024-02-04T04:59:45;10.00;99.90
13488;DHT22;6816;48.506;9.050;2024-02-04T05:02:46;9.90;99.90
13488;DHT22;6816;48.506;9.050;2024-02-04T05:05:48;9.90;99.90
13488;DHT22;6816;48.506;9.050;2024-02-04T05:08:48;9.90;99.90
13488;DHT22;6816;48.506;9.050;2024-02-04T05:11:49;9.90;99.90
13488;DHT22;6816;48.506;9.050;2024-02-04T05:14:50;9.90;99.90
13488;DHT22;6816;48.506;9.050;2024-02-04T05:17:50;9.90;99.90
13488;DHT22;6816;48.506;9.050;2024-02-04T05:20:51;10.10;99.90
13488;DHT22;6816;48.506;9.050;2024-02-04T05:23:52;9.90;99.90
13488;DHT22;6816;48.506;9.050;2024-02-04T05:26:52;9.80;99.90
13488;DHT22;6816;48.506;9.050;2024-02-04T05:29:53;10.00;99.90
13488;DHT22;6816;48.506;9.050;2024-02-04T05:32:53;9.80;99.90
13488;DHT22;6816;48.506;9.050;2024-02-04T05:35:54;9.70;99.90
13488;DHT22;6816;48.506;9.050;2024-02-04T05:38:54;9.80;99.90
13488;DHT22;6816;48.506;9.050;2024-02-04T05:41:55;9.80;99.90
13488;DHT22;6816;48.506;9.050;2024-02-04T05:44:56;9.90;99.90
13488;DHT22;6816;48.506;9.050;2024-02-04T05:47:56;9.80;99.90
13488;DHT22;6816;48.506;9.050;2024-02-04T05:50:57;9.80;99.90
13488;DHT22;6816;48.506;9.050;2024-02-04T05:53:57;9.70;99.90
13488;DHT22;6816;48.506;9.050;2024-02-04T05:56:58;9.80;99.90
13488;DHT22;6816;48.506;9.050;2024-02-04T05:59:59;9.70;99.90
13488;DHT22;6816;48.506;9.050;2024-02-04T06:02:59;9.80;99.90
13488;DHT22;6816;48.506;9.050;2024-02-04T06:06:00;9.80;99.90
13488;DHT22;6816;48.506;9.050;2024-02-04T06:09:01;9.80;99.90
13488;DHT22;6816;48.506;9.050;2024-02-04T06:12:01;9.80;99.90
13488;DHT22;6816;48.506;9.050;2024-02-04T06:15:03;9.80;99.90
13488;DHT22;6816;48.506;9.050;2024-02-04T06:18:04;9.80;99.90
13488;DHT22;6816;48.506;9.050;2024-02-04T06:21:05;9.90;99.90
13488;DHT22;6816;48.506;9.050;2024-02-04T06:24:06;9.80;99.90
13488;DHT22;6816;48.506;9.050;2024-02-04T06:27:07;9.80;99.90
13488;DHT22;6816;48.506;9.050;2024-02-04T06:30:08;9.80;99.90
13488;DHT22;6816;48.506;9.050;2024-02-04T06:33:09;9.80;99.90
13488;DHT22;6816;48.506;9.050;2024-02-04T06:36:10;9.90;99.90
13488;DHT22;6816;48.506;9.050;2024-02-04T06:39:11;9.90;99.90
13488;DHT22;6816;48.506;9.050;2024-02-04T06:42:11;9.70;99.90
13488;DHT22;6816;48.506;9.050;2024-02-04T06:45:12;9.80;99.90
13488;DHT22;6816;48.506;9.050;2024-02-04T06:48:13;9.70;99.90
13488;DHT22;6816;48.506;9.050;2024-02-04T06:51:13;9.70;99.90
13488;DHT22;6816;48.506;9.050;2024-02-04T06:54:14;9.70;99.90
13488;DHT22;6816;48.506;9.050;2024-02-04T06:57:15;9.70;99.90
13488;DHT22;6816;48.506;9.050;2024-02-04T07:00:16;9.70;99.90
13488;DHT22;6816;48.506;9.050;2024-02-04T07:03:16;9.70;99.90
13488;DHT22;6816;48.506;9.050;2024-02-04T07:06:17;9.70;99.90
13488;DHT22;6816;48.506;9.050;2024-02-04T07:09:18;9.70;99.90
13488;DHT22;6816;48.506;9.050;2024-02-04T07:12:19;9.80;99.90
13488;DHT22;6816;48.506;9.050;2024-02-04T07:15:19;9.60;99.90
13488;DHT22;6816;48.506;9.050;2024-02-04T07:18:20;9.60;99.90
13488;DHT22;6816;48.506;9.050;2024-02-04T07:21:22;9.60;99.90
13488;DHT22;6816;48.506;9.050;2024-02-04T07:24:22;9.60;99.90
13488;DHT22;6816;48.506;9.050;2024-02-04T07:27:23;9.70;99.90
13488;DHT22;6816;48.506;9.050;2024-02-04T07:30:24;9.70;99.90
13488;DHT22;6816;48.506;9.050;2024-02-04T07:33:24;9.70;99.90
13488;DHT22;6816;48.506;9.050;2024-02-04T07:36:25;9.80;99.90
13488;DHT22;6816;48.506;9.050;2024-02-04T07:39:25;9.80;99.90
13488;DHT22;6816;48.506;9.050;2024-02-04T07:42:27;9.90;99.90
13488;DHT22;6816;48.506;9.050;2024-02-04T07:45:27;9.90;99.90
13488;DHT22;6816;48.506;9.050;2024-02-04T07:48:28;10.20;99.90
13488;DHT22;6816;48.506;9.050;2024-02-04T07:51:29;10.10;99.90
13488;DHT22;6816;48.506;9.050;2024-02-04T07:54:29;10.10;99.90
13488;DHT22;6816;48.506;9.050;2024-02-04T07:57:30;10.20;99.90
13488;DHT22;6816;48.506;9.050;2024-02-04T08:00:30;10.20;99.90
13488;DHT22;6816;48.506;9.050;2024-02-04T08:03:31;10.30;99.90
13488;DHT22;6816;48.506;9.050;2024-02-04T08:06:31;10.40;99.90
13488;DHT22;6816;48.506;9.050;2024-02-04T08:09:34;10.50;99.90
13488;DHT22;6816;48.506;9.050;2024-02-04T08:12:35;10.50;99.90
13488;DHT22;6816;48.506;9.050;2024-02-04T08:15:37;10.50;99.90
13488;DHT22;6816;48.506;9.050;2024-02-04T08:18:38;10.60;99.90
13488;DHT22;6816;48.506;9.050;2024-02-04T08:21:38;10.60;99.90
13488;DHT22;6816;48.506;9.050;2024-02-04T08:24:39;10.60;99.90
13488;DHT22;6816;48.506;9.050;2024-02-04T08:27:40;10.70;99.90
13488;DHT22;6816;48.506;9.050;2024-02-04T08:30:40;10.70;99.90
13488;DHT22;6816;48.506;9.050;2024-02-04T08:33:41;10.80;99.90
13488;DHT22;6816;48.506;9.050;2024-02-04T08:36:41;10.70;99.90
13488;DHT22;6816;48.506;9.050;2024-02-04T08:39:42;10.70;99.90
13488;DHT22;6816;48.506;9.050;2024-02-04T08:42:43;10.80;99.90
13488;DHT22;6816;48.506;9.050;2024-02-04T08:45:43;10.90;99.90
13488;DHT22;6816;48.506;9.050;2024-02-04T08:48:44;10.70;99.90
13488;DHT22;6816;48.506;9.050;2024-02-04T08:51:45;10.80;99.90
13488;DHT22;6816;48.506;9.050;2024-02-04T08:54:45;10.90;99.90
13488;DHT22;6816;48.506;9.050;2024-02-04T08:57:46;10.80;99.90
13488;DHT22;6816;48.506;9.050;2024-02-04T09:00:48;10.90;99.90
13488;DHT22;6816;48.506;9.050;2024-02-04T09:03:49;10.90;99.90
13488;DHT22;6816;48.506;9.050;2024-02-04T09:06:50;11.00;99.90
13488;DHT22;6816;48.506;9.050;2024-02-04T09:09:51;11.00;99.90
13488;DHT22;6816;48.506;9.050;2024-02-04T09:12:52;11.10;99.90
13488;DHT22;6816;48.506;9.050;2024-02-04T09:15:52;11.20;99.90
13488;DHT22;6816;48.506;9.050;2024-02-04T09:18:54;11.20;99.90
13488;DHT22;6816;48.506;9.050;2024-02-04T09:21:54;11.30;99.90
13488;DHT22;6816;48.506;9.050;2024-02-04T09:24:55;11.30;99.90
13488;DHT22;6816;48.506;9.050;2024-02-04T09:27:56;11.40;99.90
13488;DHT22;6816;48.506;9.050;2024-02-04T09:30:56;11.40;99.90
13488;DHT22;6816;48.506;9.050;2024-02-04T09:33:57;11.60;99.90
13488;DHT22;6816;48.506;9.050;2024-02-04T09:36:58;11.50;99.90
13488;DHT22;6816;48.506;9.050;2024-02-04T09:39:59;11.50;99.90
13488;DHT22;6816;48.506;9.050;2024-02-04T09:43:00;11.50;99.90
13488;DHT22;6816;48.506;9.050;2024-02-04T09:46:01;11.60;99.90
13488;DHT22;6816;48.506;9.050;2024-02-04T09:49:02;11.60;99.90
13488;DHT22;6816;48.506;9.050;2024-02-04T09:52:07;11.60;99.90
13488;DHT22;6816;48.506;9.050;2024-02-04T09:55:10;11.70;99.90
13488;DHT22;6816;48.506;9.050;2024-02-04T09:58:11;11.80;99.90
13488;DHT22;6816;48.506;9.050;2024-02-04T10:01:12;11.70;99.90
13488;DHT22;6816;48.506;9.050;2024-02-04T10:04:14;11.70;99.90
13488;DHT22;6816;48.506;9.050;2024-02-04T10:07:15;11.80;99.90
13488;DHT22;6816;48.506;9.050;2024-02-04T10:10:25;11.80;99.90
13488;DHT22;6816;48.506;9.050;2024-02-04T10:13:25;11.90;99.90
13488;DHT22;6816;48.506;9.050;2024-02-04T10:16:26;12.10;99.90
13488;DHT22;6816;48.506;9.050;2024-02-04T10:19:27;12.20;99.90
13488;DHT22;6816;48.506;9.050;2024-02-04T10:22:27;12.30;99.90
13488;DHT22;6816;48.506;9.050;2024-02-04T10:25:29;12.40;99.90
13488;DHT22;6816;48.506;9.050;2024-02-04T10:28:30;12.60;99.90
13488;DHT22;6816;48.506;9.050;2024-02-04T10:31:31;12.50;99.90
13488;DHT22;6816;48.506;9.050;2024-02-04T10:34:37;12.50;99.90
13488;DHT22;6816;48.506;9.050;2024-02-04T10:37:37;12.70;99.90
13488;DHT22;6816;48.506;9.050;2024-02-04T10:40:38;12.80;99.90
13488;DHT22;6816;48.506;9.050;2024-02-04T10:43:39;13.00;99.90
13488;DHT22;6816;48.506;9.050;2024-02-04T10:46:41;13.00;99.90
13488;DHT22;6816;48.506;9.050;2024-02-04T10:49:45;13.10;99.90
13488;DHT22;6816;48.506;9.050;2024-02-04T10:52:50;13.20;99.90
13488;DHT22;6816;48.506;9.050;2024-02-04T10:55:54;13.40;99.90
13488;DHT22;6816;48.506;9.050;2024-02-04T10:58:59;13.60;99.90
13488;DHT22;6816;48.506;9.050;2024-02-04T11:02:01;13.90;99.90
13488;DHT22;6816;48.506;9.050;2024-02-04T11:05:03;14.10;99.90
13488;DHT22;6816;48.506;9.050;2024-02-04T11:08:05;14.30;99.90
13488;DHT22;6816;48.506;9.050;2024-02-04T11:11:05;14.40;99.90
13488;DHT22;6816;48.506;9.050;2024-02-04T11:14:12;14.50;99.90
13488;DHT22;6816;48.506;9.050;2024-02-04T11:21:28;14.80;99.90
13488;DHT22;6816;48.506;9.050;2024-02-04T11:25:26;14.90;99.80
13488;DHT22;6816;48.506;9.050;2024-02-04T11:28:05;15.10;99.90
13488;DHT22;6816;48.506;9.050;2024-02-04T11:31:14;15.30;99.90
13488;DHT22;6816;48.506;9.050;2024-02-04T11:34:16;15.50;99.90
13488;DHT22;6816;48.506;9.050;2024-02-04T11:37:18;15.70;99.90
13488;DHT22;6816;48.506;9.050;2024-02-04T11:40:21;15.90;99.90
13488;DHT22;6816;48.506;9.050;2024-02-04T11:43:23;16.00;99.90
13488;DHT22;6816;48.506;9.050;2024-02-04T11:46:29;16.10;99.90
13488;DHT22;6816;48.506;9.050;2024-02-04T11:49:30;16.10;99.40
13488;DHT22;6816;48.506;9.050;2024-02-04T11:52:30;16.10;99.90
13488;DHT22;6816;48.506;9.050;2024-02-04T11:55:31;16.10;99.90
13488;DHT22;6816;48.506;9.050;2024-02-04T11:58:32;16.30;99.90
13488;DHT22;6816;48.506;9.050;2024-02-04T12:01:33;16.40;99.90
13488;DHT22;6816;48.506;9.050;2024-02-04T12:04:36;16.50;99.90
13488;DHT22;6816;48.506;9.050;2024-02-04T12:07:39;16.60;99.90
13488;DHT22;6816;48.506;9.050;2024-02-04T12:10:41;16.60;99.90
13488;DHT22;6816;48.506;9.050;2024-02-04T12:13:43;16.80;99.90
13488;DHT22;6816;48.506;9.050;2024-02-04T12:16:44;17.00;99.90
13488;DHT22;6816;48.506;9.050;2024-02-04T12:19:45;17.10;99.90
13488;DHT22;6816;48.506;9.050;2024-02-04T12:22:46;17.40;99.90
13488;DHT22;6816;48.506;9.050;2024-02-04T12:25:49;17.50;99.90
13488;DHT22;6816;48.506;9.050;2024-02-04T12:28:50;17.50;99.40
13488;DHT22;6816;48.506;9.050;2024-02-04T12:32:01;17.50;99.10
13488;DHT22;6816;48.506;9.050;2024-02-04T12:35:04;17.50;96.80
13488;DHT22;6816;48.506;9.050;2024-02-04T12:38:05;17.40;98.90
13488;DHT22;6816;48.506;9.050;2024-02-04T12:41:07;17.40;98.70
13488;DHT22;6816;48.506;9.050;2024-02-04T12:44:08;17.40;97.90
13488;DHT22;6816;48.506;9.050;2024-02-04T12:47:09;17.30;97.40
13488;DHT22;6816;48.506;9.050;2024-02-04T12:50:11;17.10;97.20
13488;DHT22;6816;48.506;9.050;2024-02-04T12:53:12;17.00;96.80
13488;DHT22;6816;48.506;9.050;2024-02-04T12:56:13;16.90;97.20
13488;DHT22;6816;48.506;9.050;2024-02-04T12:59:27;16.80;97.10
13488;DHT22;6816;48.506;9.050;2024-02-04T13:02:27;16.70;94.60
13488;DHT22;6816;48.506;9.050;2024-02-04T13:05:28;16.60;96.90
13488;DHT22;6816;48.506;9.050;2024-02-04T13:08:31;16.50;96.80
13488;DHT22;6816;48.506;9.050;2024-02-04T13:11:31;16.40;96.80
13488;DHT22;6816;48.506;9.050;2024-02-04T13:14:32;16.20;96.80
13488;DHT22;6816;48.506;9.050;2024-02-04T13:17:33;16.10;97.10
13488;DHT22;6816;48.506;9.050;2024-02-04T13:20:33;15.90;97.40
13488;DHT22;6816;48.506;9.050;2024-02-04T13:23:34;16.00;97.60
13488;DHT22;6816;48.506;9.050;2024-02-04T13:26:35;15.90;97.60
13488;DHT22;6816;48.506;9.050;2024-02-04T13:29:35;15.90;97.90
13488;DHT22;6816;48.506;9.050;2024-02-04T13:32:36;15.80;98.10
13488;DHT22;6816;48.506;9.050;2024-02-04T13:35:37;15.90;98.40
13488;DHT22;6816;48.506;9.050;2024-02-04T13:38:37;15.90;98.40
13488;DHT22;6816;48.506;9.050;2024-02-04T13:41:39;15.90;98.50
13488;DHT22;6816;48.506;9.050;2024-02-04T13:44:40;16.00;98.30
13488;DHT22;6816;48.506;9.050;2024-02-04T13:47:41;15.90;98.20
13488;DHT22;6816;48.506;9.050;2024-02-04T13:50:42;15.90;98.00
13488;DHT22;6816;48.506;9.050;2024-02-04T13:53:45;15.80;98.00
13488;DHT22;6816;48.506;9.050;2024-02-04T13:56:46;15.70;98.00
13488;DHT22;6816;48.506;9.050;2024-02-04T13:59:46;15.70;97.80
13488;DHT22;6816;48.506;9.050;2024-02-04T14:02:47;15.60;97.80
13488;DHT22;6816;48.506;9.050;2024-02-04T14:05:48;15.60;98.00
13488;DHT22;6816;48.506;9.050;2024-02-04T14:08:50;15.50;97.90
13488;DHT22;6816;48.506;9.050;2024-02-04T14:11:51;15.40;98.00
13488;DHT22;6816;48.506;9.050;2024-02-04T14:14:51;15.50;98.00
13488;DHT22;6816;48.506;9.050;2024-02-04T14:17:53;15.40;98.00
13488;DHT22;6816;48.506;9.050;2024-02-04T14:20:54;15.40;98.10
13488;DHT22;6816;48.506;9.050;2024-02-04T14:23:55;15.30;98.00
13488;DHT22;6816;48.506;9.050;2024-02-04T14:26:57;15.30;98.00
13488;DHT22;6816;48.506;9.050;2024-02-04T14:29:58;15.20;97.70
13488;DHT22;6816;48.506;9.050;2024-02-04T14:32:59;15.10;97.80
13488;DHT22;6816;48.506;9.050;2024-02-04T14:36:00;15.10;97.80
13488;DHT22;6816;48.506;9.050;2024-02-04T14:39:01;15.10;97.90
13488;DHT22;6816;48.506;9.050;2024-02-04T14:42:02;15.00;98.00
13488;DHT22;6816;48.506;9.050;2024-02-04T14:45:03;14.90;98.00
13488;DHT22;6816;48.506;9.050;2024-02-04T14:48:04;14.90;97.90
13488;DHT22;6816;48.506;9.050;2024-02-04T14:51:05;14.80;98.00
13488;DHT22;6816;48.506;9.050;2024-02-04T14:54:09;14.70;97.80
13488;DHT22;6816;48.506;9.050;2024-02-04T14:57:09;14.70;97.30
13488;DHT22;6816;48.506;9.050;2024-02-04T15:00:10;14.60;97.90
13488;DHT22;6816;48.506;9.050;2024-02-04T15:03:11;14.60;98.00
13488;DHT22;6816;48.506;9.050;2024-02-04T15:06:12;14.60;98.10
13488;DHT22;6816;48.506;9.050;2024-02-04T15:09:12;14.50;98.00
13488;DHT22;6816;48.506;9.050;2024-02-04T15:12:15;14.40;98.20
13488;DHT22;6816;48.506;9.050;2024-02-04T15:15:16;14.40;98.30
13488;DHT22;6816;48.506;9.050;2024-02-04T15:18:17;14.40;98.30
13488;DHT22;6816;48.506;9.050;2024-02-04T15:21:18;14.30;98.40
13488;DHT22;6816;48.506;9.050;2024-02-04T15:24:19;14.30;98.40
13488;DHT22;6816;48.506;9.050;2024-02-04T15:27:20;14.20;98.40
13488;DHT22;6816;48.506;9.050;2024-02-04T15:30:21;14.20;98.30
13488;DHT22;6816;48.506;9.050;2024-02-04T15:33:22;14.20;98.40
13488;DHT22;6816;48.506;9.050;2024-02-04T15:36:23;14.10;98.30
13488;DHT22;6816;48.506;9.050;2024-02-04T15:39:26;14.10;98.20
13488;DHT22;6816;48.506;9.050;2024-02-04T15:42:26;14.00;98.20
13488;DHT22;6816;48.506;9.050;2024-02-04T15:45:27;14.00;98.20
13488;DHT22;6816;48.506;9.050;2024-02-04T15:48:28;14.00;98.30
13488;DHT22;6816;48.506;9.050;2024-02-04T15:51:31;13.90;98.30
13488;DHT22;6816;48.506;9.050;2024-02-04T15:54:32;13.80;98.30
13488;DHT22;6816;48.506;9.050;2024-02-04T15:57:33;13.70;98.30
13488;DHT22;6816;48.506;9.050;2024-02-04T16:00:36;13.70;98.30
13488;DHT22;6816;48.506;9.050;2024-02-04T16:03:37;13.70;98.40
13488;DHT22;6816;48.506;9.050;2024-02-04T16:06:39;13.60;98.40
13488;DHT22;6816;48.506;9.050;2024-02-04T16:09:40;13.50;98.50
13488;DHT22;6816;48.506;9.050;2024-02-04T16:12:58;13.50;98.30
13488;DHT22;6816;48.506;9.050;2024-02-04T16:16:02;13.40;98.40
13488;DHT22;6816;48.506;9.050;2024-02-04T16:19:03;13.40;97.90
13488;DHT22;6816;48.506;9.050;2024-02-04T16:22:05;13.30;98.10
13488;DHT22;6816;48.506;9.050;2024-02-04T16:25:06;13.20;98.00
13488;DHT22;6816;48.506;9.050;2024-02-04T16:28:06;13.10;97.90
13488;DHT22;6816;48.506;9.050;2024-02-04T16:31:07;13.10;97.80
13488;DHT22;6816;48.506;9.050;2024-02-04T16:34:08;12.90;97.70
13488;DHT22;6816;48.506;9.050;2024-02-04T16:37:09;12.90;97.70
13488;DHT22;6816;48.506;9.050;2024-02-04T16:40:10;12.70;97.50
13488;DHT22;6816;48.506;9.050;2024-02-04T16:43:13;12.60;97.50
13488;DHT22;6816;48.506;9.050;2024-02-04T16:46:13;12.50;97.40
13488;DHT22;6816;48.506;9.050;2024-02-04T16:49:14;12.40;97.40
13488;DHT22;6816;48.506;9.050;2024-02-04T16:52:14;12.30;97.80
13488;DHT22;6816;48.506;9.050;2024-02-04T16:55:15;12.20;97.50
13488;DHT22;6816;48.506;9.050;2024-02-04T16:58:16;12.00;97.90
13488;DHT22;6816;48.506;9.050;2024-02-04T17:01:16;12.00;97.60
13488;DHT22;6816;48.506;9.050;2024-02-04T17:04:20;11.90;97.60
13488;DHT22;6816;48.506;9.050;2024-02-04T17:07:21;11.70;97.20
13488;DHT22;6816;48.506;9.050;2024-02-04T17:10:22;11.70;97.60
13488;DHT22;6816;48.506;9.050;2024-02-04T17:13:23;11.50;97.60
13488;DHT22;6816;48.506;9.050;2024-02-04T17:16:44;11.50;97.60
13488;DHT22;6816;48.506;9.050;2024-02-04T17:23:08;11.30;97.00
13488;DHT22;6816;48.506;9.050;2024-02-04T17:26:13;11.20;97.80
13488;DHT22;6816;48.506;9.050;2024-02-04T17:29:14;11.20;97.80
13488;DHT22;6816;48.506;9.050;2024-02-04T17:32:15;11.10;98.20
13488;DHT22;6816;48.506;9.050;2024-02-04T17:35:19;11.00;98.20
13488;DHT22;6816;48.506;9.050;2024-02-04T17:38:22;11.10;98.30
13488;DHT22;6816;48.506;9.050;2024-02-04T17:41:22;10.90;98.20
13488;DHT22;6816;48.506;9.050;2024-02-04T17:44:24;10.90;98.20
13488;DHT22;6816;48.506;9.050;2024-02-04T17:47:25;10.70;98.10
13488;DHT22;6816;48.506;9.050;2024-02-04T17:50:26;10.60;98.10
13488;DHT22;6816;48.506;9.050;2024-02-04T17:53:27;10.60;98.10
13488;DHT22;6816;48.506;9.050;2024-02-04T17:56:27;10.50;98.50
13488;DHT22;6816;48.506;9.050;2024-02-04T17:59:28;10.60;98.20
13488;DHT22;6816;48.506;9.050;2024-02-04T18:02:29;10.30;98.20
13488;DHT22;6816;48.506;9.050;2024-02-04T18:05:30;10.30;98.30
13488;DHT22;6816;48.506;9.050;2024-02-04T18:08:31;10.20;98.30
13488;DHT22;6816;48.506;9.050;2024-02-04T18:11:32;10.20;98.40
13488;DHT22;6816;48.506;9.050;2024-02-04T18:14:33;10.10;98.50
13488;DHT22;6816;48.506;9.050;2024-02-04T18:17:34;10.00;98.60
13488;DHT22;6816;48.506;9.050;2024-02-04T18:20:34;10.00;98.60
13488;DHT22;6816;48.506;9.050;2024-02-04T18:23:35;10.10;98.60
13488;DHT22;6816;48.506;9.050;2024-02-04T18:26:35;9.90;98.60
13488;DHT22;6816;48.506;9.050;2024-02-04T18:29:36;9.80;98.60
13488;DHT22;6816;48.506;9.050;2024-02-04T18:32:37;9.70;98.70
13488;DHT22;6816;48.506;9.050;2024-02-04T18:35:37;9.70;98.70
13488;DHT22;6816;48.506;9.050;2024-02-04T18:38:38;9.70;98.80
13488;DHT22;6816;48.506;9.050;2024-02-04T18:41:39;9.60;98.90
13488;DHT22;6816;48.506;9.050;2024-02-04T18:44:40;9.60;99.00
13488;DHT22;6816;48.506;9.050;2024-02-04T18:47:42;9.50;99.00
13488;DHT22;6816;48.506;9.050;2024-02-04T18:50:42;9.50;99.20
13488;DHT22;6816;48.506;9.050;2024-02-04T18:53:43;9.50;99.50
13488;DHT22;6816;48.506;9.050;2024-02-04T18:56:44;9.50;99.70
13488;DHT22;6816;48.506;9.050;2024-02-04T18:59:44;9.50;99.90
13488;DHT22;6816;48.506;9.050;2024-02-04T19:02:45;9.60;99.90
13488;DHT22;6816;48.506;9.050;2024-02-04T19:05:45;9.50;99.90
13488;DHT22;6816;48.506;9.050;2024-02-04T19:08:46;9.60;99.90
13488;DHT22;6816;48.506;9.050;2024-02-04T19:11:47;9.60;99.90
13488;DHT22;6816;48.506;9.050;2024-02-04T19:14:47;9.60;99.90
13488;DHT22;6816;48.506;9.050;2024-02-04T19:17:48;9.70;99.90
13488;DHT22;6816;48.506;9.050;2024-02-04T19:20:48;9.80;99.90
13488;DHT22;6816;48.506;9.050;2024-02-04T19:23:49;9.70;99.90
13488;DHT22;6816;48.506;9.050;2024-02-04T19:26:50;9.90;99.90
13488;DHT22;6816;48.506;9.050;2024-02-04T19:29:50;9.80;99.90
13488;DHT22;6816;48.506;9.050;2024-02-04T19:32:53;9.70;99.90
13488;DHT22;6816;48.506;9.050;2024-02-04T19:35:53;9.90;99.90
13488;DHT22;6816;48.506;9.050;2024-02-04T19:38:54;9.70;99.90
13488;DHT22;6816;48.506;9.050;2024-02-04T19:41:55;9.70;99.90